Time;durP1;ratioP1;P1;durP2;ratioP2;P2;SDS_P1;SDS_P2;PMS_P1;PMS_P2;Temp;Humidity;BMP_temperature;BMP_pressure;BME280_temperature;BME280_humidity;BME280_pressure;Samples;Min_cycle;Max_cycle;Signal;HPM_P1;HPM_P2
2021/09/24 00:01:29;;;;;;;28.00;3.80;;;13.80;99.90;;;;;;5007552;28;20044;-93
2021/09/24 00:04:01;;;;;;;19.40;3.42;;;13.70;99.90;;;;;;5006043;28;20053;-92
2021/09/24 00:06:36;;;;;;;22.85;3.33;;;13.80;99.90;;;;;;5007183;28;20139;-92
2021/09/24 00:09:07;;;;;;;24.85;3.95;;;13.80;99.90;;;;;;5002849;28;20115;-92
2021/09/24 00:14:28;;;;;;;19.75;2.97;;;13.80;99.90;;;;;;5014688;28;20041;-92
2021/09/24 00:16:57;;;;;;;16.58;3.05;;;13.80;99.90;;;;;;4991872;28;20425;-92
2021/09/24 00:19:32;;;;;;;26.27;3.78;;;13.80;99.90;;;;;;4988755;28;20050;-92
2021/09/24 00:22:29;;;;;;;15.27;2.67;;;13.80;99.90;;;;;;5042398;28;20041;-91
2021/09/24 00:25:03;;;;;;;25.60;4.40;;;13.80;99.90;;;;;;5006629;28;20073;-93
2021/09/24 00:27:34;;;;;;;18.77;3.00;;;13.80;99.90;;;;;;5002842;28;20045;-92
2021/09/24 00:30:08;;;;;;;23.80;3.20;;;13.80;99.90;;;;;;5015616;28;20037;-93
2021/09/24 00:32:37;;;;;;;24.95;4.03;;;13.90;99.90;;;;;;5028710;28;20048;-93
2021/09/24 00:35:07;;;;;;;17.83;2.90;;;13.80;99.90;;;;;;5018462;28;20041;-93
2021/09/24 00:37:36;;;;;;;18.08;3.30;;;13.80;99.90;;;;;;5019715;28;20036;-93
2021/09/24 00:40:07;;;;;;;16.95;3.22;;;13.90;99.90;;;;;;5032879;28;20114;-93
2021/09/24 00:42:38;;;;;;;26.00;3.70;;;13.90;99.90;;;;;;5036500;28;20029;-93
2021/09/24 00:45:15;;;;;;;20.08;2.97;;;13.90;99.90;;;;;;5053639;28;20041;-92
2021/09/24 00:47:51;;;;;;;17.83;2.83;;;13.90;99.90;;;;;;5039945;28;20037;-92
2021/09/24 00:50:17;;;;;;;18.75;2.85;;;13.80;99.90;;;;;;5042097;28;20103;-91
2021/09/24 00:53:09;;;;;;;19.52;2.90;;;13.80;99.90;;;;;;5033913;28;20488;-92
2021/09/24 00:55:36;;;;;;;25.83;3.47;;;13.80;99.90;;;;;;5034029;28;20033;-92
2021/09/24 00:58:05;;;;;;;23.85;3.35;;;13.80;99.90;;;;;;5026617;28;20048;-92
2021/09/24 01:00:40;;;;;;;25.48;3.22;;;13.70;99.90;;;;;;5028017;28;20203;-92
2021/09/24 01:03:17;;;;;;;20.58;3.40;;;13.70;99.90;;;;;;5013536;28;20135;-91
2021/09/24 01:05:45;;;;;;;25.73;3.55;;;13.70;99.90;;;;;;5011715;28;20033;-93
2021/09/24 01:08:11;;;;;;;15.48;3.03;;;13.70;99.90;;;;;;5006961;28;20067;-93
2021/09/24 01:10:40;;;;;;;20.48;2.88;;;13.60;99.90;;;;;;5029134;28;20511;-92
2021/09/24 01:13:09;;;;;;;21.20;3.00;;;13.70;99.90;;;;;;5028396;28;20037;-92
2021/09/24 01:15:40;;;;;;;20.77;3.47;;;13.70;99.90;;;;;;5019884;28;20096;-93
2021/09/24 01:18:06;;;;;;;29.77;3.33;;;13.70;99.90;;;;;;5025985;28;20052;-92
2021/09/24 01:20:53;;;;;;;24.73;3.92;;;13.70;99.90;;;;;;5026832;28;20075;-92
2021/09/24 01:23:18;;;;;;;28.55;4.05;;;13.70;99.90;;;;;;5030904;28;20114;-92
2021/09/24 01:25:55;;;;;;;29.02;3.40;;;13.70;99.90;;;;;;5042692;28;20064;-92
2021/09/24 01:28:30;;;;;;;25.27;3.42;;;13.70;99.90;;;;;;5044258;28;20316;-93
2021/09/24 01:30:58;;;;;;;23.08;2.58;;;13.70;99.90;;;;;;5023007;28;20457;-92
2021/09/24 01:33:33;;;;;;;22.33;3.22;;;13.70;99.90;;;;;;5024815;28;20048;-93
2021/09/24 01:35:59;;;;;;;19.73;3.60;;;13.70;99.90;;;;;;5038113;28;20032;-92
2021/09/24 01:38:25;;;;;;;24.02;3.70;;;13.70;99.90;;;;;;5041929;28;20510;-92
2021/09/24 01:40:50;;;;;;;20.33;2.85;;;13.70;99.90;;;;;;4991104;28;20051;-92
2021/09/24 01:43:16;;;;;;;15.57;2.65;;;13.70;99.90;;;;;;5029247;28;20047;-92
2021/09/24 01:45:45;;;;;;;24.35;3.92;;;13.70;99.90;;;;;;5031155;28;20044;-92
2021/09/24 01:48:11;;;;;;;21.13;3.08;;;13.70;99.90;;;;;;5007220;28;20040;-92
2021/09/24 01:50:37;;;;;;;20.02;3.05;;;13.70;99.90;;;;;;5026458;28;20032;-93
2021/09/24 01:53:09;;;;;;;16.33;2.88;;;13.70;99.90;;;;;;5019802;28;20028;-93
2021/09/24 01:55:35;;;;;;;24.40;3.23;;;13.70;99.90;;;;;;5046446;28;20059;-91
2021/09/24 01:58:03;;;;;;;22.88;3.00;;;13.70;99.90;;;;;;5027624;28;20522;-92
2021/09/24 02:00:32;;;;;;;23.60;3.85;;;13.70;99.90;;;;;;5050537;28;20055;-91
2021/09/24 02:03:00;;;;;;;25.80;3.65;;;13.60;99.90;;;;;;5019124;28;20041;-93
2021/09/24 02:05:26;;;;;;;21.77;3.80;;;13.70;99.90;;;;;;5027372;28;20516;-92
2021/09/24 02:07:54;;;;;;;19.02;3.42;;;13.70;99.90;;;;;;5028420;28;20239;-93
2021/09/24 02:10:23;;;;;;;18.92;2.97;;;13.70;99.90;;;;;;5017122;28;20072;-92
2021/09/24 02:12:48;;;;;;;17.77;2.75;;;13.70;99.90;;;;;;5040336;28;20037;-92
2021/09/24 02:15:20;;;;;;;21.88;3.00;;;13.70;99.90;;;;;;5034053;28;20040;-93
2021/09/24 02:17:52;;;;;;;17.70;3.50;;;13.70;99.90;;;;;;5032550;28;20037;-92
2021/09/24 02:20:23;;;;;;;19.75;3.15;;;13.70;99.90;;;;;;5046775;28;20044;-93
2021/09/24 02:22:52;;;;;;;17.08;3.05;;;13.70;99.90;;;;;;5010740;28;20561;-93
2021/09/24 02:25:21;;;;;;;23.60;3.80;;;13.70;99.90;;;;;;5061604;28;20131;-92
2021/09/24 02:27:47;;;;;;;17.77;3.15;;;13.70;99.90;;;;;;5017151;28;20041;-92
2021/09/24 02:30:21;;;;;;;17.63;3.05;;;13.70;99.90;;;;;;5006899;28;20032;-92
2021/09/24 02:33:05;;;;;;;18.88;3.20;;;13.80;99.90;;;;;;5015555;28;20071;-93
2021/09/24 02:35:43;;;;;;;21.58;3.50;;;13.80;99.90;;;;;;5040392;28;20119;-92
2021/09/24 02:38:09;;;;;;;21.70;3.72;;;13.80;99.90;;;;;;5017049;28;20029;-92
2021/09/24 02:40:35;;;;;;;20.77;2.75;;;13.80;99.90;;;;;;5026119;28;20033;-92
2021/09/24 02:43:01;;;;;;;12.35;3.25;;;13.80;99.90;;;;;;5027590;28;20037;-92
2021/09/24 02:45:30;;;;;;;17.60;3.70;;;13.90;99.90;;;;;;5042060;28;20028;-92
2021/09/24 02:47:59;;;;;;;22.17;3.38;;;13.80;99.90;;;;;;5036591;28;20024;-93
2021/09/24 02:50:33;;;;;;;24.80;3.47;;;13.90;99.90;;;;;;5036126;28;20174;-91
2021/09/24 02:53:01;;;;;;;16.67;3.30;;;13.90;99.90;;;;;;5017906;28;20148;-93
2021/09/24 02:55:27;;;;;;;21.73;3.42;;;13.90;99.90;;;;;;5013797;28;20040;-92
2021/09/24 02:57:56;;;;;;;20.02;3.35;;;13.90;99.90;;;;;;5027964;28;20033;-92
2021/09/24 03:00:31;;;;;;;18.77;3.50;;;13.90;99.90;;;;;;5012430;28;20051;-92
2021/09/24 03:03:06;;;;;;;19.30;3.88;;;13.90;99.90;;;;;;5029956;28;20094;-93
2021/09/24 03:05:44;;;;;;;16.77;3.40;;;14.00;99.90;;;;;;5016575;28;20512;-94
2021/09/24 03:08:13;;;;;;;16.80;3.65;;;14.00;99.90;;;;;;5041435;28;20043;-93
2021/09/24 03:10:39;;;;;;;15.07;3.60;;;14.00;99.90;;;;;;5042664;28;20122;-93
2021/09/24 03:13:05;;;;;;;18.83;3.47;;;14.10;99.90;;;;;;5034202;28;20071;-93
2021/09/24 03:15:42;;;;;;;18.98;3.72;;;14.00;99.90;;;;;;5049514;28;20067;-92
2021/09/24 03:18:08;;;;;;;17.00;3.67;;;14.10;99.90;;;;;;5011168;28;20049;-92
2021/09/24 03:20:37;;;;;;;17.48;3.78;;;14.10;99.90;;;;;;5026814;28;20074;-92
2021/09/24 03:23:11;;;;;;;25.75;3.70;;;14.10;99.90;;;;;;5013150;28;20068;-92
2021/09/24 03:25:40;;;;;;;14.40;3.45;;;14.10;99.90;;;;;;5011473;28;20630;-92
2021/09/24 03:28:06;;;;;;;17.42;3.33;;;14.10;99.90;;;;;;5023295;28;20209;-91
2021/09/24 03:30:34;;;;;;;18.17;4.15;;;14.10;99.90;;;;;;5020730;28;20469;-91
2021/09/24 03:33:03;;;;;;;18.58;3.47;;;14.20;99.90;;;;;;5012516;28;20071;-93
2021/09/24 03:35:28;;;;;;;18.35;3.40;;;14.20;99.90;;;;;;5012686;28;20041;-93
2021/09/24 03:38:05;;;;;;;15.07;3.78;;;14.20;99.90;;;;;;5041018;28;20037;-92
2021/09/24 03:40:33;;;;;;;12.93;3.08;;;14.20;99.90;;;;;;5021582;28;20118;-92
2021/09/24 03:43:12;;;;;;;16.48;3.03;;;14.30;99.90;;;;;;5008062;28;20071;-92
2021/09/24 03:45:38;;;;;;;14.65;4.13;;;14.20;99.90;;;;;;5044702;28;20040;-92
2021/09/24 03:48:04;;;;;;;16.85;3.60;;;14.30;99.90;;;;;;5044259;28;20056;-92
2021/09/24 03:50:38;;;;;;;17.60;3.40;;;14.30;99.90;;;;;;5029134;28;20033;-92
2021/09/24 03:53:08;;;;;;;20.23;3.22;;;14.30;99.90;;;;;;5040435;28;20033;-92
2021/09/24 03:55:37;;;;;;;20.02;3.80;;;14.30;99.90;;;;;;5028156;28;20070;-93
2021/09/24 03:58:03;;;;;;;21.17;3.88;;;14.30;99.90;;;;;;5041664;28;20082;-91
2021/09/24 04:00:29;;;;;;;14.60;3.65;;;14.30;99.90;;;;;;5018196;28;20443;-92
2021/09/24 04:02:58;;;;;;;16.25;3.13;;;14.30;99.90;;;;;;5014361;28;20044;-91
2021/09/24 04:05:38;;;;;;;13.77;3.00;;;14.40;99.90;;;;;;5032921;28;20062;-92
2021/09/24 04:08:06;;;;;;;16.48;3.45;;;14.40;99.90;;;;;;5029318;28;20072;-92
2021/09/24 04:10:32;;;;;;;17.42;3.47;;;14.40;99.90;;;;;;5020956;28;20555;-91
2021/09/24 04:12:58;;;;;;;21.25;3.50;;;14.40;99.90;;;;;;5040504;28;20088;-92
2021/09/24 04:15:29;;;;;;;19.98;3.50;;;14.40;99.90;;;;;;5032178;28;20400;-92
2021/09/24 04:17:58;;;;;;;14.35;3.10;;;14.40;99.90;;;;;;5019104;28;20033;-93
2021/09/24 04:20:26;;;;;;;14.82;3.05;;;14.50;99.90;;;;;;5028115;28;20088;-91
2021/09/24 04:22:55;;;;;;;17.15;3.50;;;14.50;99.90;;;;;;5010708;28;20412;-93
2021/09/24 04:25:24;;;;;;;18.30;3.22;;;14.50;99.90;;;;;;4994556;28;20057;-92
2021/09/24 04:28:02;;;;;;;11.43;3.30;;;14.50;99.90;;;;;;5039883;28;20033;-90
2021/09/24 04:30:43;;;;;;;16.15;3.45;;;14.60;99.90;;;;;;5034087;28;21770;-92
2021/09/24 04:33:12;;;;;;;13.03;3.33;;;14.60;99.90;;;;;;5027747;28;20138;-91
2021/09/24 04:35:47;;;;;;;14.85;3.88;;;14.50;99.90;;;;;;5038223;28;20037;-92
2021/09/24 04:38:22;;;;;;;18.83;3.60;;;14.60;99.90;;;;;;5026380;28;20834;-93
2021/09/24 04:41:08;;;;;;;17.10;3.45;;;14.60;99.90;;;;;;5040414;28;20041;-93
2021/09/24 04:43:50;;;;;;;27.83;4.00;;;14.60;99.90;;;;;;5049352;28;20041;-95
2021/09/24 04:46:24;;;;;;;23.05;3.40;;;14.60;99.90;;;;;;5042041;28;20086;-93
2021/09/24 04:49:02;;;;;;;17.55;3.22;;;14.60;99.90;;;;;;5020006;28;20040;-93
2021/09/24 04:51:36;;;;;;;15.35;3.45;;;14.60;99.90;;;;;;5033021;28;20632;-94
2021/09/24 04:54:02;;;;;;;17.83;2.90;;;14.60;99.90;;;;;;5048030;28;20044;-93
2021/09/24 04:56:39;;;;;;;14.52;3.40;;;14.60;99.90;;;;;;5020375;28;20079;-93
2021/09/24 04:59:05;;;;;;;13.55;3.63;;;14.70;99.90;;;;;;5017918;28;20115;-94
2021/09/24 05:01:34;;;;;;;19.27;3.67;;;14.70;99.90;;;;;;5002811;28;20051;-93
2021/09/24 05:04:10;;;;;;;16.58;3.88;;;14.70;99.90;;;;;;5007650;28;20114;-94
2021/09/24 05:06:50;;;;;;;16.50;3.80;;;14.70;99.90;;;;;;5009371;28;20044;-93
2021/09/24 05:09:22;;;;;;;17.75;3.95;;;14.70;99.90;;;;;;5002748;28;20034;-95
2021/09/24 05:11:54;;;;;;;9.77;3.60;;;14.70;99.90;;;;;;5002104;28;20072;-92
2021/09/24 05:14:27;;;;;;;19.98;4.40;;;14.70;99.90;;;;;;5026433;28;20043;-93
2021/09/24 05:20:00;;;;;;;14.88;4.28;;;14.70;99.90;;;;;;5020743;28;20033;-95
2021/09/24 05:22:58;;;;;;;20.02;4.10;;;14.70;99.90;;;;;;5008041;28;20042;-94
2021/09/24 05:25:36;;;;;;;15.43;3.55;;;14.70;99.90;;;;;;5007679;28;20084;-93
2021/09/24 05:28:31;;;;;;;17.95;4.00;;;14.70;99.90;;;;;;4999596;28;20283;-95
2021/09/24 05:31:24;;;;;;;15.52;3.97;;;14.80;99.90;;;;;;4970613;28;20065;-94
2021/09/24 05:34:04;;;;;;;17.50;4.00;;;14.80;99.90;;;;;;4962322;28;20762;-95
2021/09/24 05:40:13;;;;;;;17.15;4.35;;;14.80;99.90;;;;;;5015482;28;20489;-95
2021/09/24 05:42:48;;;;;;;24.27;4.45;;;14.80;99.90;;;;;;5040190;28;20067;-94
2021/09/24 05:45:17;;;;;;;15.38;4.40;;;14.90;99.90;;;;;;5030749;28;20051;-93
2021/09/24 05:48:00;;;;;;;16.40;4.85;;;14.80;99.90;;;;;;5018460;28;20113;-94
2021/09/24 10:10:49;;;;;;;24.23;11.27;;;16.90;99.90;;;;;;5034971;28;20043;-86
2021/09/24 10:29:35;;;;;;;18.48;10.65;;;17.20;99.90;;;;;;4805383;29;20077;-88
2021/09/24 10:44:36;;;;;;;23.17;13.13;;;17.50;99.90;;;;;;4760686;30;20066;-86
2021/09/24 12:02:07;;;;;;;22.23;12.57;;;19.30;99.90;;;;;;4988782;28;20055;-91
2021/09/24 12:08:30;;;;;;;20.48;9.70;;;19.60;99.90;;;;;;5034283;28;20088;-90
2021/09/24 12:11:27;;;;;;;17.53;10.00;;;19.60;99.70;;;;;;5025827;28;20407;-89
2021/09/24 12:14:09;;;;;;;18.15;8.52;;;19.70;99.30;;;;;;5008413;28;20688;-90
2021/09/24 12:16:37;;;;;;;18.27;8.35;;;19.70;98.90;;;;;;4989351;28;20033;-91
2021/09/24 12:19:29;;;;;;;16.23;7.50;;;19.70;98.70;;;;;;5002255;28;20032;-90
2021/09/24 12:21:58;;;;;;;10.00;5.47;;;19.70;98.20;;;;;;5012766;28;20048;-88
2021/09/24 12:24:33;;;;;;;16.35;5.78;;;19.80;98.30;;;;;;5002354;28;20049;-87
2021/09/24 12:27:02;;;;;;;11.50;5.65;;;19.90;97.80;;;;;;4993834;28;20036;-86
2021/09/24 12:29:29;;;;;;;13.55;5.60;;;19.90;97.50;;;;;;5011158;28;20072;-88
2021/09/24 12:32:28;;;;;;;10.18;4.45;;;19.90;97.50;;;;;;4993219;28;20103;-90
2021/09/24 12:35:04;;;;;;;11.02;5.78;;;19.90;97.10;;;;;;4949543;28;20050;-85
2021/09/24 12:37:50;;;;;;;7.70;3.92;;;19.90;97.10;;;;;;4949633;28;20080;-89
2021/09/24 12:40:27;;;;;;;12.35;3.90;;;20.00;96.40;;;;;;5008072;28;20041;-89
2021/09/24 12:42:56;;;;;;;15.10;5.18;;;20.00;96.70;;;;;;5006178;28;20041;-87
2021/09/24 12:45:31;;;;;;;12.68;4.93;;;20.10;96.20;;;;;;5004504;28;20053;-88
2021/09/24 12:48:08;;;;;;;12.43;4.95;;;20.20;95.60;;;;;;5002160;28;20110;-89
2021/09/24 12:50:37;;;;;;;9.95;5.18;;;20.30;95.00;;;;;;5004775;28;20046;-91
2021/09/24 12:53:03;;;;;;;14.52;4.90;;;20.40;94.90;;;;;;4993117;28;20032;-88
2021/09/24 12:55:30;;;;;;;15.45;5.32;;;20.40;94.30;;;;;;5016738;28;20072;-87
2021/09/24 12:58:10;;;;;;;10.80;5.20;;;20.40;94.30;;;;;;4990046;28;20437;-87
2021/09/24 13:00:39;;;;;;;12.95;6.05;;;20.40;94.50;;;;;;5004350;28;20098;-86
2021/09/24 13:03:11;;;;;;;15.85;6.30;;;20.40;94.00;;;;;;5018685;28;20037;-90
2021/09/24 13:05:37;;;;;;;13.23;5.72;;;20.40;93.80;;;;;;4972426;28;20474;-89
2021/09/24 13:08:03;;;;;;;12.32;6.50;;;20.30;94.10;;;;;;4973483;28;20049;-87
2021/09/24 13:10:45;;;;;;;14.38;5.93;;;20.30;94.20;;;;;;5004036;28;20044;-89
2021/09/24 13:13:15;;;;;;;12.10;5.20;;;20.30;94.70;;;;;;4995974;28;20049;-89
2021/09/24 13:15:45;;;;;;;10.38;5.18;;;20.30;94.80;;;;;;4982402;28;20343;-89
2021/09/24 13:18:13;;;;;;;12.40;5.93;;;20.40;94.80;;;;;;5006737;28;20033;-88
2021/09/24 13:20:42;;;;;;;13.15;5.70;;;20.60;94.80;;;;;;4996144;28;20289;-89
2021/09/24 13:23:08;;;;;;;10.77;4.97;;;21.00;94.10;;;;;;5010437;28;20037;-89
2021/09/24 13:25:34;;;;;;;11.88;5.43;;;21.10;93.90;;;;;;5014241;28;20118;-87
2021/09/24 13:28:12;;;;;;;11.48;5.10;;;21.30;93.40;;;;;;4990211;28;20033;-87
2021/09/24 13:31:02;;;;;;;11.70;5.38;;;21.20;92.90;;;;;;5009259;28;20208;-89
2021/09/24 13:33:31;;;;;;;12.35;5.85;;;21.10;93.10;;;;;;5004638;28;20033;-89
2021/09/24 13:35:57;;;;;;;13.20;5.25;;;21.00;93.20;;;;;;4993482;28;20032;-86
2021/09/24 13:38:38;;;;;;;13.13;5.22;;;20.90;93.10;;;;;;5001869;28;20323;-84
2021/09/24 13:41:10;;;;;;;11.18;5.18;;;20.80;93.30;;;;;;5012889;28;20037;-89
2021/09/24 13:43:42;;;;;;;11.15;4.93;;;20.80;93.50;;;;;;5010322;28;20057;-86
2021/09/24 13:46:08;;;;;;;10.47;4.73;;;20.70;93.50;;;;;;5012480;28;20055;-87
2021/09/24 13:48:37;;;;;;;11.80;4.15;;;20.60;93.70;;;;;;4993882;28;20312;-86
2021/09/24 13:51:03;;;;;;;7.82;4.10;;;20.50;93.40;;;;;;4994859;28;20041;-87
2021/09/24 13:53:32;;;;;;;7.45;4.20;;;20.50;93.10;;;;;;4998363;28;20063;-87
2021/09/24 13:55:58;;;;;;;9.77;4.13;;;20.40;92.90;;;;;;5010671;28;20457;-89
2021/09/24 13:58:31;;;;;;;9.48;3.65;;;20.40;92.60;;;;;;4997792;28;20064;-86
2021/09/24 14:00:58;;;;;;;10.20;4.47;;;20.30;92.60;;;;;;4994172;28;20033;-87
2021/09/24 14:03:23;;;;;;;10.65;4.13;;;20.30;92.60;;;;;;5011624;28;20125;-87
2021/09/24 14:05:52;;;;;;;8.82;4.20;;;20.30;92.40;;;;;;5029089;28;20116;-87
2021/09/24 14:08:18;;;;;;;8.48;3.30;;;20.30;92.60;;;;;;5016225;28;20365;-86
2021/09/24 14:10:44;;;;;;;6.45;3.50;;;20.40;92.60;;;;;;5016686;28;20045;-87
2021/09/24 14:13:10;;;;;;;7.30;4.15;;;20.40;92.60;;;;;;5011694;28;20043;-85
2021/09/24 14:15:52;;;;;;;7.75;4.35;;;20.40;92.40;;;;;;5013512;28;20090;-86
2021/09/24 14:18:18;;;;;;;9.23;3.80;;;20.40;92.50;;;;;;5010300;28;20033;-88
2021/09/24 14:20:48;;;;;;;8.63;3.47;;;20.40;92.50;;;;;;4995402;28;20056;-86
2021/09/24 14:23:14;;;;;;;7.82;3.33;;;20.40;92.60;;;;;;4996482;28;20048;-89
2021/09/24 14:26:00;;;;;;;4.65;3.30;;;20.40;92.50;;;;;;4992061;28;20044;-89
2021/09/24 14:28:29;;;;;;;10.27;4.10;;;20.40;92.90;;;;;;4950710;28;20131;-86
2021/09/24 14:30:58;;;;;;;4.95;3.40;;;20.40;92.90;;;;;;5022443;28;20037;-85
2021/09/24 14:33:30;;;;;;;6.65;3.58;;;20.40;93.00;;;;;;4998557;28;20064;-86
2021/09/24 14:35:58;;;;;;;10.80;3.47;;;20.40;93.10;;;;;;5006620;28;20029;-85
2021/09/24 14:38:25;;;;;;;9.73;3.90;;;20.40;93.00;;;;;;5012299;28;20040;-87
2021/09/24 14:40:55;;;;;;;8.40;4.07;;;20.40;93.00;;;;;;4978122;28;20701;-88
2021/09/24 14:43:26;;;;;;;9.55;4.78;;;20.40;92.90;;;;;;5003498;28;20033;-88
2021/09/24 14:46:03;;;;;;;12.10;5.22;;;20.40;93.00;;;;;;5007187;28;20033;-83
2021/09/24 14:48:37;;;;;;;13.05;5.30;;;20.40;93.20;;;;;;5010693;28;20041;-84
2021/09/24 14:51:19;;;;;;;14.43;5.05;;;20.40;93.30;;;;;;4991798;28;20041;-86
2021/09/24 14:53:47;;;;;;;9.65;5.10;;;20.40;93.40;;;;;;5007168;28;20084;-88
2021/09/24 14:56:22;;;;;;;12.85;4.90;;;20.40;93.50;;;;;;5008947;28;20033;-85
2021/09/24 14:59:05;;;;;;;9.00;4.95;;;20.40;93.60;;;;;;5002800;28;20115;-86
2021/09/24 15:01:41;;;;;;;10.63;3.58;;;20.40;93.40;;;;;;4997157;28;20052;-87
2021/09/24 15:04:10;;;;;;;6.20;3.40;;;20.50;93.20;;;;;;5010212;28;20037;-86
2021/09/24 15:07:02;;;;;;;;;;;;;;;;;;;;;
2021/09/24 15:09:31;;;;;;;7.03;3.35;;;20.50;92.80;;;;;;5025964;28;20223;-83
2021/09/24 15:12:06;;;;;;;7.85;2.90;;;20.50;93.10;;;;;;4992472;28;20503;-86
2021/09/24 15:14:35;;;;;;;5.93;2.13;;;20.50;93.10;;;;;;4996213;28;20037;-86
2021/09/24 15:17:02;;;;;;;6.70;2.80;;;20.70;93.00;;;;;;4994926;28;20033;-88
2021/09/24 15:19:39;;;;;;;6.60;2.63;;;21.20;92.30;;;;;;5007791;28;20040;-89
2021/09/24 15:22:18;;;;;;;7.47;3.13;;;21.60;91.30;;;;;;4996042;28;20044;-86
2021/09/24 15:24:50;;;;;;;3.97;2.35;;;21.50;90.80;;;;;;5017235;28;20033;-89
2021/09/24 15:27:17;;;;;;;7.93;2.63;;;21.40;90.80;;;;;;5010450;28;20041;-88
2021/09/24 15:29:52;;;;;;;11.68;5.07;;;21.20;90.50;;;;;;4991468;28;20029;-88
2021/09/24 15:32:19;;;;;;;4.45;2.53;;;21.00;91.10;;;;;;5010072;28;20044;-88
2021/09/24 15:34:51;;;;;;;7.50;2.42;;;21.00;91.40;;;;;;4993254;28;20045;-88
2021/09/24 15:37:17;;;;;;;8.30;2.30;;;21.00;91.40;;;;;;4992219;28;20034;-85
2021/09/24 15:44:57;;;;;;;4.18;2.67;;;21.00;91.10;;;;;;5045063;28;20052;-85
2021/09/24 15:47:26;;;;;;;7.03;3.17;;;20.90;90.90;;;;;;4993963;28;20227;-86
2021/09/24 15:49:54;;;;;;;8.02;2.75;;;20.80;91.10;;;;;;5023006;28;20043;-84
2021/09/24 15:52:24;;;;;;;5.15;2.35;;;20.70;91.20;;;;;;5009934;28;20052;-86
2021/09/24 15:55:21;;;;;;;9.70;2.83;;;20.60;91.50;;;;;;5024378;28;20037;-87
2021/09/24 15:57:52;;;;;;;6.65;2.40;;;20.50;91.80;;;;;;5010411;28;20044;-86
2021/09/24 16:00:31;;;;;;;6.20;2.85;;;20.40;92.20;;;;;;5012539;28;20035;-87
2021/09/24 16:02:57;;;;;;;12.20;3.03;;;20.30;92.30;;;;;;5045274;28;20046;-87
2021/09/24 16:05:23;;;;;;;6.57;2.40;;;20.20;92.30;;;;;;5046463;28;20193;-84
2021/09/24 16:07:51;;;;;;;6.82;2.45;;;20.10;92.70;;;;;;5012995;28;20139;-85
2021/09/24 16:10:22;;;;;;;12.32;3.08;;;20.10;93.00;;;;;;5011870;28;20028;-84
2021/09/24 16:13:11;;;;;;;9.82;2.65;;;20.00;93.20;;;;;;5025391;28;20589;-86
2021/09/24 16:15:39;;;;;;;5.70;2.58;;;20.00;93.30;;;;;;5027800;28;20400;-85
2021/09/24 16:22:06;;;;;;;;;;;19.90;93.10;;;;;;5030163;28;20052;-84
2021/09/24 16:27:52;;;;;;;8.98;2.47;;;19.70;93.60;;;;;;4966619;28;20053;-85
2021/09/24 16:31:06;;;;;;;9.00;2.38;;;19.60;93.60;;;;;;5051764;28;20129;-86
2021/09/24 16:33:33;;;;;;;6.70;2.53;;;19.60;93.60;;;;;;5048768;28;20494;-85
2021/09/24 16:35:58;;;;;;;9.55;2.85;;;19.50;93.70;;;;;;5041462;28;20262;-84
2021/09/24 16:38:26;;;;;;;9.38;2.45;;;19.40;93.60;;;;;;5022001;28;20082;-86
2021/09/24 16:40:53;;;;;;;5.88;2.58;;;19.40;93.70;;;;;;5037046;28;20309;-85
2021/09/24 16:43:19;;;;;;;9.00;2.70;;;19.40;93.80;;;;;;5035604;28;20672;-85
2021/09/24 16:46:05;;;;;;;6.47;2.35;;;19.30;93.80;;;;;;5044720;28;21127;-86
2021/09/24 16:48:34;;;;;;;10.80;2.50;;;19.30;93.70;;;;;;5052213;28;20047;-86
2021/09/24 16:51:28;;;;;;;6.53;2.30;;;19.20;93.60;;;;;;5038391;28;20039;-86
2021/09/24 16:54:00;;;;;;;5.18;2.50;;;19.20;93.70;;;;;;5033206;28;20143;-84
2021/09/24 16:56:37;;;;;;;4.07;2.08;;;19.10;93.70;;;;;;5025112;28;20036;-85
2021/09/24 17:03:33;;;;;;;10.77;2.75;;;19.10;93.90;;;;;;4992407;28;20251;-87
2021/09/24 17:06:59;;;;;;;8.25;2.40;;;19.00;93.90;;;;;;4978255;28;20044;-87
2021/09/24 17:09:58;;;;;;;10.25;3.40;;;18.90;94.00;;;;;;4980398;28;20256;-88
2021/09/24 17:16:53;;;;;;;5.32;2.40;;;18.90;94.00;;;;;;4936702;28;20075;-84
2021/09/24 17:20:00;;;;;;;5.75;2.20;;;18.80;94.20;;;;;;4907744;28;20058;-84
2021/09/24 17:26:24;;;;;;;11.27;2.80;;;18.70;94.30;;;;;;4886161;29;20062;-86
2021/09/24 17:34:27;;;;;;;;;;;;;;;;;;;;;
2021/09/24 17:38:39;;;;;;;8.18;3.20;;;18.60;94.70;;;;;;4844529;29;20097;-85
2021/09/24 17:53:20;;;;;;;8.13;2.60;;;18.40;95.30;;;;;;4882428;29;20607;-84
2021/09/24 19:41:30;;;;;;;7.45;2.30;;;17.80;97.40;;;;;;5019764;28;20052;-85
2021/09/24 19:45:30;;;;;;;8.50;2.30;;;17.70;97.30;;;;;;4943474;28;20221;-87
2021/09/24 19:49:22;;;;;;;14.65;2.30;;;17.70;97.20;;;;;;4881018;29;20061;-86
2021/09/24 19:53:19;;;;;;;7.97;1.80;;;17.70;97.20;;;;;;4834816;29;20174;-85
2021/09/24 20:04:26;;;;;;;7.88;2.30;;;17.70;97.20;;;;;;4760373;30;20093;-85
2021/09/24 20:07:48;;;;;;;9.60;2.10;;;17.70;97.10;;;;;;4747523;30;21018;-85
2021/09/24 20:11:00;;;;;;;8.05;1.85;;;17.60;97.00;;;;;;4739328;30;20075;-85
2021/09/24 20:22:26;;;;;;;11.57;2.22;;;17.60;97.00;;;;;;4774420;29;20154;-85
2021/09/24 20:29:38;;;;;;;;;;;;;;;;;;;;;
2021/09/24 20:37:04;;;;;;;8.75;2.40;;;17.60;97.30;;;;;;4709324;30;20997;-85
2021/09/24 20:55:30;;;;;;;10.98;2.45;;;17.50;97.80;;;;;;4689120;30;20927;-86
2021/09/24 21:39:53;;;;;;;10.60;3.13;;;17.20;99.90;;;;;;4937546;28;21031;-83
2021/09/24 21:47:11;;;;;;;10.50;3.20;;;17.20;99.90;;;;;;4890116;29;20051;-84
2021/09/24 21:58:24;;;;;;;12.07;3.55;;;17.20;99.90;;;;;;4809491;29;21339;-83
2021/09/24 22:28:45;;;;;;;11.20;3.80;;;17.30;99.90;;;;;;4987661;28;20041;-84
2021/09/24 22:36:38;;;;;;;;;;;;;;;;;;;;;
2021/09/24 22:40:22;;;;;;;11.70;2.83;;;17.20;99.90;;;;;;4846877;29;20090;-84
